• Join FlightAware (Why Join?)
  • Login
  • US Flag 
06:40AM EDT


 

Airport Tracker/Info


-or-


 

Live Flight TrackerFlight Track Log ✈ UAL1122 ✈ 26-Apr-2012 ✈ KFLL - KIAH

Flight Track Log - Related Links

Times and Time Zones

All times are in EDT time to prevent confusion due to time zone crossing. See the UAL1122 flight status page for this flight to view local times or setup timezone preferences in your user account.

Time Position Orientation Groundspeed Altitude Reporting Facility
EDT Latitude Longitude Course Direction KTS MPH feet Rate Location/Type
05:26PM 26.0855 -80.1788 90° East  Level FlightAware Approximate
05:27PM 26.0853 -80.0467 11° North 223 257 4,100  Level Miami Center
05:28PM 26.1586 -80.0303 313° West 282 325 5,000 360 Climbing Miami Center
05:29PM 26.2014 -80.0822 293° West 290 334 4,900 60 Descending Miami Center
05:30PM 26.2331 -80.1642 279° West 290 334 5,200 1,320 Climbing Miami Center
05:31PM 26.2456 -80.2547 282° West 284 327 7,600 2,520 Climbing Miami Center
05:32PM 26.2625 -80.3411 279° West 298 343 10,200 1,680 Climbing Miami Center
05:33PM 26.2783 -80.4528 281° West 324 373 11,200 1,560 Climbing Miami Center
05:34PM 26.2967 -80.5575 304° West 368 423 13,400 2,220 Climbing Miami Center
05:35PM 26.3628 -80.6661 315° West 389 448 15,700 2,160 Climbing Miami Center
05:36PM 26.4339 -80.7450 314° West 396 456 17,800 1,860 Climbing Miami Center
05:37PM 26.5189 -80.8431 303° West 395 455 19,500 1,620 Climbing Miami Center
05:38PM 26.5767 -80.9425 302° West 414 476 21,100 1,680 Climbing Miami Center
05:39PM 26.6464 -81.0658 302° West 430 495 22,900 1,620 Climbing Miami Center
05:40PM 26.7039 -81.1700 301° West 436 502 24,400 1,440 Climbing Miami Center
05:41PM 26.7750 -81.3031 302° West 441 507 25,800 1,440 Climbing Miami Center
05:42PM 26.8403 -81.4194 290° West 447 514 27,300 1,500 Climbing Miami Center
05:43PM 26.8839 -81.5539 290° West 447 514 28,900 1,500 Climbing Miami Center
05:44PM 26.9275 -81.6883 292° West 452 520 30,300 1,380 Climbing Miami Center
05:45PM 26.9736 -81.8136 293° West 452 520 31,800 1,440 Climbing Miami Center
05:46PM 27.0156 -81.9228 289° West 447 514 33,200 1,260 Climbing Miami Center
05:47PM 27.0586 -82.0622 288° West 429 494 34,400 1,080 Climbing Miami Center
05:48PM 27.0958 -82.1875 288° West 429 494 35,400 780 Climbing Miami Center
05:49PM 27.1331 -82.3128 289° West 429 494 36,000 300 Climbing Miami Center
05:50PM 27.1719 -82.4406 287° West 424 488 36,000 -60 Level Miami Center
05:51PM 27.2064 -82.5706 289° West 429 494 35,900 -60 Descending Miami Center
05:52PM 27.2453 -82.6986 288° West 429 494 35,900  Level Miami Center
05:53PM 27.2817 -82.8242 288° West 424 488 36,000  Climbing Miami Center
05:54PM 27.3203 -82.9544 289° West 439 505 36,000 -60 Level Miami Center
05:55PM 27.3586 -83.0828 287° West 439 505 35,900 -60 Descending Miami Center
05:56PM 27.3892 -83.1942 289° West 439 505 35,900  Level Miami Center
05:57PM 27.4272 -83.3225 288° West 434 499 35,900  Level Miami Center
05:58PM 27.4650 -83.4533 288° West 429 494 36,000  Climbing Miami Center
05:59PM 27.5008 -83.5817 288° West 429 494 36,000  Level Miami Center
06:00PM 27.5367 -83.7078 288° West 429 494 36,000  Level Miami Center
06:01PM 27.5742 -83.8364 285° West 429 494 36,000  Level Miami Center
06:02PM 27.6036 -83.9622 289° West 429 494 36,000 -60 Level Miami Center
06:03PM 27.6431 -84.0889 287° West 429 494 35,900  Descending Miami Center
06:04PM 27.6783 -84.2175 291° West 429 494 36,000  Climbing Miami Center
06:05PM 27.7219 -84.3444 283° West 429 494 35,900  Descending Miami Center
06:06PM 27.7442 -84.4494 288° West 429 494 36,000  Climbing Jacksonville Center
06:07PM 27.7822 -84.5789 288° West 424 488 36,000  Level Jacksonville Center
06:08PM 27.8181 -84.7061 288° West 424 488 36,000  Level Jacksonville Center
06:09PM 27.8497 -84.8147 285° West 423 487 36,000  Level Jacksonville Center
06:10PM 27.8811 -84.9492 287° West 423 487 36,000  Level Jacksonville Center
06:11PM 27.9164 -85.0767 287° West 423 487 36,000  Level Jacksonville Center
06:12PM 27.9497 -85.2042 287° West 423 487 36,000  Level Jacksonville Center
06:13PM 27.9869 -85.3392 288° West 431 496 36,000 -60 Level Jacksonville Center
06:14PM 28.0219 -85.4644 287° West 431 496 35,900  Descending Jacksonville Center
06:15PM 28.0550 -85.5875 287° West 424 488 36,000  Climbing Jacksonville Center
06:16PM 28.0897 -85.7178 288° West 424 488 35,900 -60 Descending Jacksonville Center
06:17PM 28.1244 -85.8389 285° West 419 482 35,900  Level Jacksonville Center
06:18PM 28.1550 -85.9669 288° West 419 482 36,000  Climbing Jacksonville Center
06:19PM 28.1914 -86.0975 287° West 419 482 35,900  Descending Jacksonville Center
06:20PM 28.2236 -86.2211 287° West 419 482 36,000  Climbing Jacksonville Center
06:21PM 28.2558 -86.3444 287° West 414 476 36,000  Level Jacksonville Center
06:22PM 28.2900 -86.4683 286° West 421 484 36,000  Level Jacksonville Center
06:23PM 28.3239 -86.5992 286° West 415 478 36,000  Level Jacksonville Center
06:24PM 28.3556 -86.7275 286° West 415 478 36,000  Level Jacksonville Center
06:25PM 28.3872 -86.8539 288° West 415 478 36,000  Level Jacksonville Center
06:26PM 28.4247 -86.9875 285° West 421 484 36,000  Level Jacksonville Center
06:27PM 28.4542 -87.1114 286° West 421 484 36,000  Level Jacksonville Center
06:28PM 28.4856 -87.2378 285° West 421 484 36,000  Level Jacksonville Center
06:29PM 28.5147 -87.3597 287° West 427 491 36,000  Level Jacksonville Center
06:31PM 28.5733 -87.5825 286° West 394 453 36,000 -60 Level Houston Center
06:32PM 28.6061 -87.7114 287° West 406 467 35,900  Descending Houston Center
06:33PM 28.6392 -87.8381 285° West 414 476 36,000  Climbing Houston Center
06:34PM 28.6697 -87.9647 284° West 414 476 36,000 -60 Level Houston Center
06:35PM 28.7006 -88.1058 285° West 422 486 35,900 -60 Descending Houston Center
06:36PM 28.7311 -88.2350 286° West 416 479 35,900  Level Houston Center
06:37PM 28.7633 -88.3642 286° West 416 479 36,000  Climbing Houston Center
06:38PM 28.7956 -88.4914 284° West 416 479 35,900 -60 Descending Houston Center
06:39PM 28.8236 -88.6233 287° West 421 484 35,900  Level Houston Center
06:40PM 28.8578 -88.7503 285° West 421 484 36,000  Climbing Houston Center
06:41PM 28.8878 -88.8800 285° West 421 484 36,000  Level Houston Center
06:42PM 28.9172 -89.0075 285° West 421 484 36,000 -60 Level Houston Center
06:43PM 28.9469 -89.1347 282° West 421 484 35,900  Descending Houston Center
06:44PM 28.9722 -89.2672 279° West 416 479 36,000  Climbing Houston Center
06:45PM 28.9914 -89.4022 282° West 421 484 36,000  Level Houston Center
06:46PM 29.0142 -89.5300 280° West 426 490 36,000 -60 Level Houston Center
06:47PM 29.0350 -89.6650 280° West 432 497 35,900  Descending Houston Center
06:48PM 29.0558 -89.7978 280° West 432 497 36,000  Climbing Houston Center
06:49PM 29.0761 -89.9281 281° West 427 491 36,000  Level Houston Center
06:50PM 29.0986 -90.0608 279° West 427 491 36,000  Level Houston Center
06:51PM 29.1169 -90.1914 281° West 427 491 36,000  Level Houston Center
06:52PM 29.1392 -90.3289 280° West 427 491 36,000  Level Houston Center
06:53PM 29.1592 -90.4619 280° West 427 491 36,000 -60 Level Houston Center
06:54PM 29.1792 -90.5925 281° West 427 491 35,900  Descending Houston Center
06:55PM 29.2008 -90.7256 281° West 427 491 36,000  Climbing Houston Center
06:57PM 29.2397 -90.9603 280° West 424 488 36,000  Level FlightAware ADS-B
06:57PM 29.2556 -91.0652 280° West 424 488 36,000  Level FlightAware ADS-B
06:58PM 29.2665 -91.1386 278° West 425 489 36,000 -120 Level FlightAware ADS-B
06:59PM 29.2808 -91.2561 278° West 427 491 35,900  Descending Houston Center
07:00PM 29.2978 -91.3872 282° West 427 491 36,000  Climbing Houston Center
07:01PM 29.3231 -91.5228 278° West 427 491 36,000  Level Houston Center
07:02PM 29.3400 -91.6539 280° West 427 491 36,000  Level Houston Center
07:04PM 29.3767 -91.8924 279° West 424 488 36,000  Level FlightAware ADS-B
07:04PM 29.3864 -91.9601 279° West 424 488 36,000  Level FlightAware ADS-B
07:05PM 29.4054 -92.0932 279° West 425 489 36,000  Level FlightAware ADS-B
07:06PM 29.4155 -92.1651 279° West 423 487 36,000  Level FlightAware ADS-B
07:07PM 29.4313 -92.2764 279° West 421 484 36,000  Level FlightAware ADS-B
07:07PM 29.4410 -92.3455 279° West 420 483 36,000  Level FlightAware ADS-B
07:08PM 29.4513 -92.4198 278° West 420 483 36,000  Level FlightAware ADS-B
07:08PM 29.4570 -92.4692 273° West 421 484 36,000  Level FlightAware ADS-B
07:09PM 29.4608 -92.5471 273° West 422 486 36,000  Level FlightAware ADS-B
07:09PM 29.4641 -92.6174 273° West 422 486 36,000  Level FlightAware ADS-B
07:10PM 29.4676 -92.6926 273° West 421 484 36,000  Level FlightAware ADS-B
07:10PM 29.4707 -92.7610 273° West 420 483 36,000 -300 Level FlightAware ADS-B
07:11PM 29.4743 -92.8408 273° West 419 482 35,700 -840 Descending FlightAware ADS-B
07:11PM 29.4774 -92.9083 273° West 422 486 35,100 -1,020 Descending FlightAware ADS-B
07:12PM 29.4804 -92.9756 273° West 422 486 34,700 -1,020 Descending FlightAware ADS-B
07:12PM 29.4836 -93.0443 273° West 423 487 34,100 -1,380 Descending FlightAware ADS-B
07:13PM 29.4867 -93.1155 273° West 428 493 33,300 -1,620 Descending FlightAware ADS-B
07:13PM 29.4895 -93.1844 273° West 441 507 32,400 -1,920 Descending FlightAware ADS-B
07:14PM 29.4926 -93.2599 273° West 450 518 31,300 -2,340 Descending FlightAware ADS-B
07:14PM 29.4958 -93.3373 273° West 457 526 30,000 -2,700 Descending FlightAware ADS-B
07:15PM 29.4989 -93.4119 273° West 456 525 28,600 -2,580 Descending FlightAware ADS-B
07:15PM 29.5017 -93.4845 273° West 454 522 27,400 -2,400 Descending FlightAware ADS-B
07:16PM 29.5047 -93.5569 273° West 449 517 26,200 -2,400 Descending FlightAware ADS-B
07:16PM 29.5074 -93.6278 272° West 443 510 25,000 -2,400 Descending FlightAware ADS-B
07:17PM 29.5101 -93.6998 272° West 438 504 23,800 -2,280 Descending FlightAware ADS-B
07:17PM 29.5127 -93.7699 273° West 432 497 22,700 -2,280 Descending FlightAware ADS-B
07:18PM 29.5153 -93.8388 272° West 428 493 21,500 -2,280 Descending FlightAware ADS-B
07:18PM 29.5179 -93.9084 273° West 422 486 20,400 -2,280 Descending FlightAware ADS-B
07:19PM 29.5205 -93.9753 273° West 415 478 19,200 -2,400 Descending FlightAware ADS-B
07:19PM 29.5231 -94.0419 272° West 405 466 18,000 -2,340 Descending FlightAware ADS-B
07:20PM 29.5254 -94.1094 272° West 397 457 16,800 -2,280 Descending FlightAware ADS-B
07:21PM 29.5276 -94.1729 272° West 389 448 15,700 -2,220 Descending FlightAware ADS-B
07:21PM 29.5297 -94.2342 272° West 382 440 14,600 -2,100 Descending FlightAware ADS-B
07:22PM 29.5318 -94.2943 272° West 374 430 13,600 -2,100 Descending FlightAware ADS-B
07:22PM 29.5326 -94.3172 275° West 372 428 13,200 -2,040 Descending FlightAware ADS-B
07:22PM 29.5332 -94.3248 280° West 370 426 13,100 -1,020 Descending FlightAware ADS-B
07:22PM 29.5356 -94.3398 285° West 363 418 13,000 -480 Descending FlightAware ADS-B
07:22PM 29.5380 -94.3502 289° West 358 412 13,000  Level FlightAware ADS-B
07:22PM 29.5420 -94.3634 294° West 350 403 13,000  Level FlightAware ADS-B
07:22PM 29.5455 -94.3726 296° West 345 397 13,000 -1,260 Level FlightAware ADS-B
07:23PM 29.5616 -94.4107 296° West 342 394 12,400 -1,620 Descending FlightAware ADS-B
07:23PM 29.5826 -94.4597 296° West 344 396 11,600 -1,560 Descending FlightAware ADS-B
07:23PM 29.5938 -94.4859 296° West 341 392 11,200 -1,680 Descending FlightAware ADS-B
07:24PM 29.6097 -94.5232 297° West 334 384 10,500 -1,500 Descending FlightAware ADS-B
07:24PM 29.6187 -94.5438 297° West 327 376 10,300 -1,320 Descending FlightAware ADS-B
07:24PM 29.6292 -94.5680 296° West 316 364 9,900 -1,620 Descending FlightAware ADS-B
07:24PM 29.6388 -94.5902 296° West 309 356 9,500 -1,620 Descending FlightAware ADS-B
07:25PM 29.6481 -94.6121 296° West 304 350 9,100 -1,380 Descending FlightAware ADS-B
07:25PM 29.6573 -94.6339 297° West 293 337 8,800 -1,500 Descending FlightAware ADS-B
07:25PM 29.6602 -94.6405 300° West 292 336 8,600 -2,580 Descending FlightAware ADS-B
07:25PM 29.6622 -94.6445 304° West 293 337 8,500 -1,500 Descending FlightAware ADS-B
07:25PM 29.6655 -94.6502 308° West 293 337 8,400 -2,040 Descending FlightAware ADS-B
07:25PM 29.6693 -94.6558 313° West 294 338 8,200 -3,000 Descending FlightAware ADS-B
07:25PM 29.6729 -94.6602 319° Northwest 296 341 8,000 -2,400 Descending FlightAware ADS-B
07:25PM 29.6792 -94.6666 324° Northwest 297 342 7,800 -1,800 Descending FlightAware ADS-B
07:26PM 29.6833 -94.6700 324° Northwest 298 343 7,700 -1,140 Descending FlightAware ADS-B
07:26PM 29.6967 -94.6812 324° Northwest 294 338 7,500 -1,080 Descending FlightAware ADS-B
07:26PM 29.7133 -94.6953 324° Northwest 291 335 7,200 -1,380 Descending FlightAware ADS-B
07:26PM 29.7300 -94.7094 324° Northwest 289 333 6,800 -1,500 Descending FlightAware ADS-B
07:26PM 29.7443 -94.7213 324° Northwest 286 329 6,500 -1,260 Descending FlightAware ADS-B
07:27PM 29.7608 -94.7350 324° Northwest 286 329 6,200 -1,200 Descending FlightAware ADS-B
07:27PM 29.7770 -94.7484 324° Northwest 287 330 5,900 -1,200 Descending FlightAware ADS-B
07:27PM 29.7934 -94.7619 324° Northwest 287 330 5,600 -1,200 Descending FlightAware ADS-B
07:27PM 29.8104 -94.7759 324° Northwest 287 330 5,300 -1,200 Descending FlightAware ADS-B
07:28PM 29.8273 -94.7898 324° Northwest 287 330 5,000 -1,020 Descending FlightAware ADS-B
07:28PM 29.8434 -94.8033 324° Northwest 285 328 4,800 -1,020 Descending FlightAware ADS-B
07:28PM 29.8594 -94.8168 324° Northwest 284 327 4,500 -1,200 Descending FlightAware ADS-B
07:28PM 29.8754 -94.8302 324° Northwest 283 326 4,200 -1,020 Descending FlightAware ADS-B
07:29PM 29.8915 -94.8437 324° Northwest 280 322 4,000 -780 Descending FlightAware ADS-B
07:29PM 29.9072 -94.8570 324° Northwest 278 320 3,800 -1,080 Descending FlightAware ADS-B
07:29PM 29.9334 -94.8788 323° Northwest 276 318 3,300 -1,140 Descending FlightAware ADS-B
07:30PM 29.9463 -94.8900 314° West 271 312 3,100 -960 Descending FlightAware ADS-B
07:30PM 29.9520 -94.8969 306° West 264 304 3,000 -1,200 Descending FlightAware ADS-B
07:30PM 29.9548 -94.9013 302° West 261 300 2,900 -780 Descending FlightAware ADS-B
07:30PM 29.9572 -94.9057 298° West 260 299 2,900 -720 Level FlightAware ADS-B
07:30PM 29.9597 -94.9112 293° West 258 297 2,800 -1,500 Descending FlightAware ADS-B
07:30PM 29.9612 -94.9152 291° West 257 296 2,700 -1,020 Descending FlightAware ADS-B
07:30PM 29.9627 -94.9197 288° West 255 293 2,700 -900 Level FlightAware ADS-B
07:30PM 29.9641 -94.9248 284° West 253 291 2,600 -1,500 Descending FlightAware ADS-B
07:30PM 29.9652 -94.9298 283° West 252 290 2,500 -1,080 Descending FlightAware ADS-B
07:30PM 29.9701 -94.9552 282° West 251 289 2,200 -960 Descending FlightAware ADS-B
07:31PM 29.9733 -94.9720 282° West 247 284 2,000 -480 Descending FlightAware ADS-B
07:31PM 29.9761 -94.9872 278° West 236 272 2,000  Level FlightAware ADS-B
07:31PM 29.9771 -94.9954 275° West 230 265 2,000  Level FlightAware ADS-B
07:31PM 29.9774 -94.9997 274° West 226 260 2,000  Level FlightAware ADS-B
07:31PM 29.9777 -95.0050 271° West 222 255 2,000  Level FlightAware ADS-B
07:31PM 29.9780 -95.0201 269° West 212 244 2,000  Level FlightAware ADS-B
07:32PM 29.9779 -95.0286 268° West 209 241 2,000  Level FlightAware ADS-B
07:32PM 29.9775 -95.0460 269° West 215 247 2,000  Level FlightAware ADS-B
07:32PM 29.9773 -95.0595 269° West 219 252 2,000  Level FlightAware ADS-B
07:32PM 29.9772 -95.0714 271° West 221 254 2,000  Level FlightAware ADS-B
07:32PM 29.9774 -95.0891 271° West 222 255 2,000  Level FlightAware ADS-B
07:33PM 29.9775 -95.1021 270° West 222 255 2,000 180 Level FlightAware ADS-B
07:33PM 29.9776 -95.1191 270° West 218 251 2,100  Climbing FlightAware ADS-B
07:33PM 29.9777 -95.1349 269° West 214 246 2,000 -240 Descending FlightAware ADS-B
07:33PM 29.9775 -95.1519 270° West 209 241 2,000  Level FlightAware ADS-B
07:33PM 29.9775 -95.1627 271° West 207 238 2,000  Level FlightAware ADS-B
07:34PM 29.9776 -95.1740 270° West 203 234 2,000  Level FlightAware ADS-B
07:34PM 29.9776 -95.1808 270° West 199 229 2,000 -600 Level FlightAware ADS-B
07:34PM 29.9776 -95.2052 270° West 190 219 1,700 -960 Descending FlightAware ADS-B
07:34PM 29.9776 -95.2143 270° West 180 207 1,500 -900 Descending FlightAware ADS-B
07:35PM 29.9775 -95.2303 270° West 166 191 1,300 -780 Descending FlightAware ADS-B
07:35PM 29.9775 -95.2432 270° West 159 183 1,100 -840 Descending FlightAware ADS-B
07:35PM 29.9775 -95.2498 270° West 160 184 1,000 -840 Descending FlightAware ADS-B
07:35PM 29.9775 -95.2559 271° West 161 185 900 -900 Descending FlightAware ADS-B
07:35PM 29.9776 -95.2620 270° West 160 184 800 -900 Descending FlightAware ADS-B
07:35PM 29.9776 -95.2728 270° West 157 181 600 -780 Descending FlightAware ADS-B
07:36PM 29.9776 -95.2879 270° West 155 178 400 -720 Descending FlightAware ADS-B
07:36PM 29.9776 -95.3005 270° West 155 178 200 -780 Descending FlightAware ADS-B